createdAt,value
2023-01-30T00:00:28.720Z,88.98
2023-01-30T00:02:56.199Z,87.07
2023-01-30T00:05:26.052Z,87.99
2023-01-30T00:07:54.946Z,92.61
2023-01-30T00:10:24.067Z,89.12
2023-01-30T00:12:52.621Z,90.05
2023-01-30T00:15:20.042Z,89.49
2023-01-30T00:17:47.459Z,88.38
2023-01-30T00:20:15.886Z,87.67
2023-01-30T00:22:52.471Z,88.24
2023-01-30T00:25:28.465Z,91.81
2023-01-30T00:27:56.991Z,93.18
2023-01-30T00:30:24.553Z,91.39
2023-01-30T00:32:55.591Z,92.56
2023-01-30T00:35:28.250Z,92.20
2023-01-30T00:37:57.758Z,93.23
2023-01-30T00:40:25.630Z,93.61
2023-01-30T00:43:12.788Z,94.56
2023-01-30T00:46:00.088Z,94.15
2023-01-30T00:48:27.920Z,95.05
2023-01-30T00:50:55.371Z,93.62
2023-01-30T00:53:22.838Z,94.48
2023-01-30T00:55:52.149Z,95.77
2023-01-30T00:58:20.808Z,95.65
2023-01-30T01:00:48.304Z,96.44
2023-01-30T01:03:15.826Z,95.60
2023-01-30T01:05:43.805Z,96.27
2023-01-30T01:08:11.302Z,96.43
2023-01-30T01:10:39.134Z,96.47
2023-01-30T01:13:07.197Z,95.37
2023-01-30T01:15:35.974Z,96.47
2023-01-30T01:18:03.707Z,95.55
2023-01-30T01:20:31.136Z,96.09
2023-01-30T01:22:58.876Z,95.79
2023-01-30T01:25:26.731Z,95.62
2023-01-30T01:27:55.555Z,96.14
2023-01-30T01:30:23.045Z,95.40
2023-01-30T01:32:54.554Z,95.44
2023-01-30T01:35:21.998Z,94.41
2023-01-30T01:37:49.531Z,94.50
2023-01-30T01:40:37.657Z,93.99
2023-01-30T01:43:15.944Z,94.71
2023-01-30T01:45:44.581Z,94.96
2023-01-30T01:48:19.909Z,94.25
2023-01-30T01:50:51.595Z,93.45
2023-01-30T01:53:23.797Z,93.68
2023-01-30T01:55:55.174Z,93.40
2023-01-30T01:58:27.757Z,93.62
2023-01-30T02:00:58.371Z,93.98
2023-01-30T02:03:31.164Z,94.49
2023-01-30T02:06:01.788Z,95.00
2023-01-30T02:08:34.284Z,93.85
2023-01-30T02:11:07.315Z,95.59
2023-01-30T02:13:35.221Z,94.78
2023-01-30T02:16:04.179Z,94.83
2023-01-30T02:18:36.407Z,95.02
2023-01-30T02:21:27.047Z,94.28
2023-01-30T02:24:25.874Z,95.01
2023-01-30T02:27:03.649Z,94.87
2023-01-30T02:30:09.936Z,94.81
2023-01-30T02:32:42.901Z,94.32
2023-01-30T02:35:22.662Z,94.60
2023-01-30T02:38:05.069Z,94.93
2023-01-30T02:40:48.017Z,94.81
2023-01-30T02:43:23.469Z,94.76
2023-01-30T02:45:53.931Z,94.75
2023-01-30T02:48:28.203Z,94.37
2023-01-30T02:51:00.216Z,94.49
2023-01-30T02:53:32.495Z,94.87
2023-01-30T02:55:59.969Z,94.41
2023-01-30T02:58:30.309Z,94.41
2023-01-30T03:01:25.063Z,94.66
2023-01-30T03:04:27.351Z,95.30
2023-01-30T03:07:08.669Z,95.23
2023-01-30T03:09:45.288Z,95.22
2023-01-30T03:12:18.137Z,95.47
2023-01-30T03:14:50.466Z,94.98
2023-01-30T03:17:21.726Z,94.55
2023-01-30T03:19:51.082Z,95.05
2023-01-30T03:22:18.374Z,95.19
2023-01-30T03:24:45.858Z,94.53
2023-01-30T03:27:13.852Z,95.61
2023-01-30T03:29:41.812Z,95.23
2023-01-30T03:32:09.386Z,95.36
2023-01-30T03:34:36.801Z,94.13
2023-01-30T03:37:06.784Z,95.04
2023-01-30T03:39:34.223Z,95.10
2023-01-30T03:42:01.872Z,95.46
2023-01-30T03:44:29.357Z,95.27
2023-01-30T03:46:56.800Z,95.21
2023-01-30T03:49:24.429Z,95.92
2023-01-30T03:51:51.945Z,95.18
2023-01-30T03:54:20.914Z,95.25
2023-01-30T03:56:48.362Z,95.78
2023-01-30T03:59:15.855Z,95.78
2023-01-30T04:01:43.319Z,95.23
2023-01-30T04:04:10.934Z,95.55
2023-01-30T04:06:38.393Z,95.46
2023-01-30T04:09:05.997Z,95.49
2023-01-30T04:11:34.798Z,96.24
2023-01-30T04:14:02.327Z,96.15
2023-01-30T04:16:29.788Z,95.71
2023-01-30T04:18:57.284Z,95.66
2023-01-30T04:21:24.752Z,95.02
2023-01-30T04:23:52.213Z,95.54
2023-01-30T04:26:19.670Z,95.61
2023-01-30T04:28:48.482Z,95.13
2023-01-30T04:31:15.915Z,94.57
2023-01-30T04:33:43.842Z,95.20
2023-01-30T04:36:12.223Z,95.18
2023-01-30T04:38:40.084Z,95.42
2023-01-30T04:41:08.373Z,94.73
2023-01-30T04:43:35.852Z,95.09
2023-01-30T04:46:04.884Z,95.38
2023-01-30T04:48:32.477Z,95.25
2023-01-30T04:51:00.008Z,95.17
2023-01-30T04:53:27.569Z,95.15
2023-01-30T04:55:55.019Z,96.00
2023-01-30T04:58:22.461Z,95.82
2023-01-30T05:00:50.126Z,96.04
2023-01-30T05:03:18.964Z,96.91
2023-01-30T05:05:48.425Z,96.80
2023-01-30T05:08:16.314Z,97.61
2023-01-30T05:10:43.808Z,97.54
2023-01-30T05:13:11.289Z,99.59
2023-01-30T05:15:40.235Z,100.00
2023-01-30T05:18:07.670Z,100.00
2023-01-30T05:20:36.573Z,99.18
2023-01-30T05:23:04.055Z,100.00
2023-01-30T05:25:31.541Z,99.75
2023-01-30T05:27:58.996Z,100.00
2023-01-30T05:30:26.488Z,100.00
2023-01-30T05:32:53.942Z,100.00
2023-01-30T05:35:21.456Z,100.00
2023-01-30T05:37:53.036Z,100.00
2023-01-30T05:40:20.485Z,100.00
2023-01-30T05:42:47.955Z,100.00
2023-01-30T05:45:15.521Z,100.00
2023-01-30T05:47:43.017Z,100.00
2023-01-30T05:50:12.087Z,100.00
2023-01-30T05:52:39.561Z,100.00
2023-01-30T05:55:09.448Z,100.00
2023-01-30T05:57:36.931Z,100.00
2023-01-30T06:00:05.210Z,100.00
2023-01-30T06:02:32.710Z,100.00
2023-01-30T06:05:00.147Z,100.00
2023-01-30T06:07:27.567Z,100.00
2023-01-30T06:09:55.060Z,100.00
2023-01-30T06:12:23.857Z,100.00
2023-01-30T06:14:51.311Z,100.00
2023-01-30T06:17:18.736Z,100.00
2023-01-30T06:19:46.171Z,100.00
2023-01-30T06:22:13.617Z,100.00
2023-01-30T06:24:41.053Z,100.00
2023-01-30T06:27:08.558Z,100.00
2023-01-30T06:29:37.327Z,100.00
2023-01-30T06:32:05.165Z,100.00
2023-01-30T06:34:32.602Z,100.00
2023-01-30T06:37:00.168Z,100.00
2023-01-30T06:39:27.609Z,100.00
2023-01-30T06:41:55.057Z,100.00
2023-01-30T06:44:22.504Z,100.00
2023-01-30T06:46:51.274Z,100.00
2023-01-30T06:49:18.752Z,99.72
2023-01-30T06:51:46.178Z,100.00
2023-01-30T06:54:13.733Z,100.00
2023-01-30T06:56:41.154Z,100.00
2023-01-30T06:59:08.635Z,100.00
2023-01-30T07:01:36.138Z,100.00
2023-01-30T07:04:05.053Z,99.70
2023-01-30T07:06:32.577Z,99.85
2023-01-30T07:09:00.123Z,99.80
2023-01-30T07:11:27.586Z,100.00
2023-01-30T07:13:55.084Z,99.55
2023-01-30T07:16:28.588Z,99.88
2023-01-30T07:18:57.327Z,99.97
2023-01-30T07:21:27.126Z,99.71
2023-01-30T07:23:54.695Z,99.63
2023-01-30T07:26:22.185Z,99.06
2023-01-30T07:28:49.659Z,99.84
2023-01-30T07:31:17.164Z,99.69
2023-01-30T07:33:44.655Z,99.11
2023-01-30T07:36:12.105Z,99.37
2023-01-30T07:38:40.867Z,99.11
2023-01-30T07:41:08.326Z,99.38
2023-01-30T07:43:35.800Z,98.78
2023-01-30T07:46:03.927Z,98.59
2023-01-30T07:48:31.491Z,99.21
2023-01-30T07:50:58.968Z,99.14
2023-01-30T07:53:26.466Z,99.31
2023-01-30T07:55:55.249Z,98.78
2023-01-30T07:58:22.736Z,98.77
2023-01-30T08:00:50.209Z,98.51
2023-01-30T08:03:18.195Z,98.21
2023-01-30T08:05:47.022Z,98.66
2023-01-30T08:08:14.603Z,98.55
2023-01-30T08:10:42.096Z,98.33
2023-01-30T08:13:13.415Z,98.20
2023-01-30T08:15:40.869Z,97.94
2023-01-30T08:18:08.424Z,98.20
2023-01-30T08:20:36.014Z,97.83
2023-01-30T08:23:03.549Z,97.85
2023-01-30T08:25:31.169Z,97.60
2023-01-30T08:27:59.793Z,97.55
2023-01-30T08:30:30.226Z,97.24
2023-01-30T08:32:58.402Z,96.93
2023-01-30T08:35:25.894Z,97.76
2023-01-30T08:37:53.320Z,97.37
2023-01-30T08:40:21.008Z,97.56
2023-01-30T08:42:48.574Z,97.43
2023-01-30T08:45:16.048Z,97.77
2023-01-30T08:47:44.828Z,97.67
2023-01-30T08:50:12.546Z,98.36
2023-01-30T08:52:40.112Z,98.86
2023-01-30T08:55:08.225Z,99.25
2023-01-30T08:57:35.704Z,100.00
2023-01-30T09:00:03.616Z,100.00
2023-01-30T09:02:31.272Z,100.00
2023-01-30T09:05:00.067Z,100.00
2023-01-30T09:07:28.691Z,100.00
2023-01-30T09:09:56.409Z,100.00
2023-01-30T09:12:24.215Z,100.00
2023-01-30T09:14:53.017Z,100.00
2023-01-30T09:17:20.456Z,100.00
2023-01-30T09:19:47.965Z,100.00
2023-01-30T09:22:17.483Z,100.00
2023-01-30T09:24:45.238Z,100.00
2023-01-30T09:27:13.775Z,100.00
2023-01-30T09:29:42.672Z,100.00
2023-01-30T09:32:11.095Z,100.00
2023-01-30T09:34:38.529Z,100.00
2023-01-30T09:37:05.959Z,100.00
2023-01-30T09:39:35.172Z,100.00
2023-01-30T09:42:14.624Z,100.00
2023-01-30T09:45:02.377Z,100.00
2023-01-30T09:47:36.042Z,100.00
2023-01-30T09:50:21.192Z,100.00
2023-01-30T09:52:57.295Z,100.00
2023-01-30T09:55:29.165Z,100.00
2023-01-30T09:57:58.585Z,100.00
2023-01-30T10:00:33.076Z,100.00
2023-01-30T10:03:07.047Z,100.00
2023-01-30T10:05:40.849Z,100.00
2023-01-30T10:08:31.728Z,100.00
2023-01-30T10:11:10.479Z,100.00
2023-01-30T10:14:07.370Z,100.00
2023-01-30T10:16:42.366Z,100.00
2023-01-30T10:19:36.210Z,100.00
2023-01-30T10:22:16.200Z,100.00
2023-01-30T10:24:57.575Z,100.00
2023-01-30T10:27:28.213Z,100.00
2023-01-30T10:29:58.657Z,100.00
2023-01-30T10:32:31.577Z,100.00
2023-01-30T10:35:05.497Z,100.00
2023-01-30T10:37:36.651Z,100.00
2023-01-30T10:40:13.765Z,100.00
2023-01-30T10:42:50.947Z,100.00
2023-01-30T10:45:21.802Z,100.00
2023-01-30T10:48:01.591Z,100.00
2023-01-30T10:50:46.178Z,100.00
2023-01-30T10:53:20.599Z,100.00
2023-01-30T10:55:51.803Z,100.00
2023-01-30T10:58:28.890Z,100.00
2023-01-30T11:01:01.906Z,100.00
2023-01-30T11:03:38.708Z,100.00
2023-01-30T11:06:09.375Z,100.00
2023-01-30T11:08:37.185Z,100.00
2023-01-30T11:11:30.162Z,100.00
2023-01-30T11:14:07.241Z,100.00
2023-01-30T11:16:43.128Z,100.00
2023-01-30T11:19:21.112Z,100.00
2023-01-30T11:21:52.316Z,100.00
2023-01-30T11:24:22.023Z,100.00
2023-01-30T11:26:50.285Z,100.00
2023-01-30T11:29:27.017Z,100.00
2023-01-30T11:31:55.169Z,100.00
2023-01-30T11:34:25.156Z,100.00
2023-01-30T11:36:52.732Z,100.00
2023-01-30T11:39:24.007Z,100.00
2023-01-30T11:42:01.811Z,100.00
2023-01-30T11:44:33.329Z,100.00
2023-01-30T11:47:03.491Z,100.00
2023-01-30T11:49:46.470Z,100.00
2023-01-30T11:52:18.808Z,100.00
2023-01-30T11:54:47.924Z,100.00
2023-01-30T11:57:17.556Z,100.00
2023-01-30T11:59:54.530Z,100.00
2023-01-30T12:02:26.208Z,100.00
2023-01-30T12:04:56.978Z,100.00
2023-01-30T12:07:26.458Z,100.00
2023-01-30T12:09:55.584Z,100.00
2023-01-30T12:12:32.297Z,100.00
2023-01-30T12:15:14.210Z,100.00
2023-01-30T12:17:48.060Z,100.00
2023-01-30T12:20:22.887Z,100.00
2023-01-30T12:23:00.756Z,100.00
2023-01-30T12:25:32.586Z,100.00
2023-01-30T12:28:03.530Z,100.00
2023-01-30T12:30:40.484Z,100.00
2023-01-30T12:33:15.314Z,100.00
2023-01-30T12:36:03.256Z,100.00
2023-01-30T12:38:48.597Z,100.00
2023-01-30T12:41:31.409Z,100.00
2023-01-30T12:44:20.446Z,100.00
2023-01-30T12:47:01.863Z,100.00
2023-01-30T12:49:36.521Z,100.00
2023-01-30T12:52:29.505Z,100.00
2023-01-30T12:55:07.991Z,100.00
2023-01-30T12:57:45.084Z,100.00
2023-01-30T13:00:31.494Z,100.00
2023-01-30T13:03:17.153Z,100.00
2023-01-30T13:05:50.625Z,100.00
2023-01-30T13:08:42.229Z,100.00
2023-01-30T13:11:28.806Z,100.00
2023-01-30T13:14:08.299Z,100.00
2023-01-30T13:16:43.262Z,100.00
2023-01-30T13:19:21.162Z,99.84
2023-01-30T13:22:00.363Z,99.24
2023-01-30T13:24:42.157Z,99.94
2023-01-30T13:27:15.998Z,99.78
2023-01-30T13:29:45.178Z,99.71
2023-01-30T13:32:17.672Z,98.66
2023-01-30T13:34:49.321Z,98.33
2023-01-30T13:37:18.119Z,98.89
2023-01-30T13:39:49.796Z,98.21
2023-01-30T13:42:28.996Z,99.02
2023-01-30T13:44:58.002Z,98.49
2023-01-30T13:47:41.915Z,98.55
2023-01-30T13:50:27.731Z,98.32
2023-01-30T13:53:00.748Z,98.45
2023-01-30T13:55:36.249Z,98.86
2023-01-30T13:58:14.805Z,98.84
2023-01-30T14:00:53.277Z,97.15
2023-01-30T14:03:30.455Z,97.28
2023-01-30T14:06:15.160Z,98.18
2023-01-30T14:08:53.340Z,98.88
2023-01-30T14:11:33.859Z,98.39
2023-01-30T14:14:05.711Z,98.93
2023-01-30T14:16:45.605Z,99.30
2023-01-30T14:19:35.699Z,99.73
2023-01-30T14:22:18.333Z,99.13
2023-01-30T14:24:45.932Z,99.22
2023-01-30T14:27:25.285Z,99.24
2023-01-30T14:29:56.772Z,99.93
2023-01-30T14:32:51.135Z,99.17
2023-01-30T14:35:26.623Z,99.35
2023-01-30T14:38:18.330Z,99.69
2023-01-30T14:41:10.621Z,99.29
2023-01-30T14:43:51.486Z,99.28
2023-01-30T14:46:54.290Z,99.17
2023-01-30T14:49:30.276Z,99.27
2023-01-30T14:51:57.841Z,99.76
2023-01-30T14:54:41.238Z,98.98
2023-01-30T14:57:20.118Z,99.47
2023-01-30T15:00:12.191Z,99.82
2023-01-30T15:02:44.074Z,99.64
2023-01-30T15:05:16.056Z,99.74
2023-01-30T15:07:46.919Z,99.02
2023-01-30T15:10:36.992Z,99.44
2023-01-30T15:13:30.524Z,98.63
2023-01-30T15:16:09.548Z,99.25
2023-01-30T15:19:04.474Z,99.16
2023-01-30T15:21:43.628Z,98.50
2023-01-30T15:24:34.546Z,97.88
2023-01-30T15:27:13.869Z,97.25
2023-01-30T15:29:59.583Z,98.17
2023-01-30T15:32:28.608Z,98.55
2023-01-30T15:34:58.928Z,97.91
2023-01-30T15:37:37.663Z,98.21
2023-01-30T15:40:19.433Z,98.46
2023-01-30T15:42:50.892Z,98.79
2023-01-30T15:45:25.486Z,98.30
2023-01-30T15:48:31.302Z,98.50
2023-01-30T15:51:00.934Z,98.72
2023-01-30T15:53:32.043Z,98.71
2023-01-30T15:56:02.492Z,99.23
2023-01-30T15:58:32.689Z,98.70
2023-01-30T16:01:01.863Z,98.87
2023-01-30T16:03:32.522Z,98.78
2023-01-30T16:06:00.046Z,99.09
2023-01-30T16:08:29.087Z,98.89
2023-01-30T16:10:57.200Z,99.68
2023-01-30T16:13:25.409Z,99.60
2023-01-30T16:15:59.755Z,98.70
2023-01-30T16:18:33.238Z,98.87
2023-01-30T16:21:03.871Z,98.40
2023-01-30T16:23:34.917Z,99.22
2023-01-30T16:26:03.262Z,98.89
2023-01-30T16:28:32.133Z,99.04
2023-01-30T16:31:03.410Z,98.90
2023-01-30T16:33:36.207Z,98.78
2023-01-30T16:36:05.115Z,99.27
2023-01-30T16:38:38.103Z,98.37
2023-01-30T16:41:06.267Z,99.14
2023-01-30T16:43:34.452Z,99.34
2023-01-30T16:46:46.002Z,98.72
2023-01-30T16:49:19.670Z,98.61
2023-01-30T16:51:48.180Z,98.32
2023-01-30T16:54:24.127Z,98.44
2023-01-30T16:56:56.554Z,98.71
2023-01-30T16:59:30.892Z,98.56
2023-01-30T17:02:00.924Z,98.79
2023-01-30T17:04:30.846Z,98.54
2023-01-30T17:07:00.875Z,97.86
2023-01-30T17:09:43.511Z,97.57
2023-01-30T17:12:36.994Z,98.46
2023-01-30T17:15:27.140Z,98.07
2023-01-30T17:17:56.057Z,98.40
2023-01-30T17:20:24.038Z,98.43
2023-01-30T17:22:53.745Z,97.98
2023-01-30T17:25:30.605Z,97.47
2023-01-30T17:27:58.506Z,97.67
2023-01-30T17:30:26.116Z,97.96
2023-01-30T17:32:53.580Z,98.00
2023-01-30T17:35:22.446Z,98.22
2023-01-30T17:37:59.539Z,97.39
2023-01-30T17:40:34.472Z,97.12
2023-01-30T17:43:01.932Z,96.82
2023-01-30T17:45:29.601Z,97.09
2023-01-30T17:47:57.050Z,97.74
2023-01-30T17:50:26.110Z,97.27
2023-01-30T17:52:53.543Z,97.95
2023-01-30T17:55:21.705Z,97.83
2023-01-30T17:57:49.717Z,97.80
2023-01-30T18:00:20.121Z,97.89
2023-01-30T18:02:48.341Z,97.73
2023-01-30T18:05:16.006Z,97.46
2023-01-30T18:07:44.874Z,97.44
2023-01-30T18:10:15.354Z,97.18
2023-01-30T18:12:45.281Z,97.13
2023-01-30T18:15:15.097Z,96.25
2023-01-30T18:17:47.166Z,96.21
2023-01-30T18:20:17.845Z,96.20
2023-01-30T18:22:47.340Z,95.64
2023-01-30T18:25:15.488Z,95.67
2023-01-30T18:27:44.212Z,95.74
2023-01-30T18:30:15.164Z,95.82
2023-01-30T18:32:52.466Z,96.74
2023-01-30T18:35:20.652Z,95.83
2023-01-30T18:37:49.755Z,94.86
2023-01-30T18:40:17.654Z,95.54
2023-01-30T18:42:45.479Z,95.18
2023-01-30T18:45:12.943Z,94.55
2023-01-30T18:47:40.405Z,95.33
2023-01-30T18:50:08.310Z,95.75
2023-01-30T18:52:35.934Z,95.54
2023-01-30T18:55:05.169Z,95.59
2023-01-30T18:57:32.617Z,95.80
2023-01-30T19:00:00.058Z,95.38
2023-01-30T19:02:27.620Z,96.07
2023-01-30T19:04:55.093Z,95.23
2023-01-30T19:07:22.546Z,94.74
2023-01-30T19:09:50.249Z,94.51
2023-01-30T19:12:36.505Z,94.25
2023-01-30T19:15:04.213Z,94.45
2023-01-30T19:17:31.842Z,95.37
2023-01-30T19:20:01.047Z,96.08
2023-01-30T19:22:28.472Z,96.92
2023-01-30T19:24:55.931Z,97.55
2023-01-30T19:27:25.845Z,96.86
2023-01-30T19:29:53.323Z,96.74
2023-01-30T19:32:20.801Z,97.62
2023-01-30T19:34:50.081Z,97.76
2023-01-30T19:37:18.452Z,97.91
2023-01-30T19:39:45.884Z,97.61
2023-01-30T19:42:14.159Z,97.99
2023-01-30T19:44:42.939Z,97.79
2023-01-30T19:47:10.414Z,98.33
2023-01-30T19:49:38.497Z,97.80
2023-01-30T19:52:06.025Z,97.83
2023-01-30T19:54:34.302Z,97.35
2023-01-30T19:57:01.797Z,98.28
2023-01-30T19:59:29.389Z,98.51
2023-01-30T20:01:58.205Z,99.46
2023-01-30T20:04:25.770Z,98.94
2023-01-30T20:06:53.231Z,99.12
2023-01-30T20:09:20.684Z,99.49
2023-01-30T20:11:48.182Z,98.71
2023-01-30T20:14:15.748Z,98.77
2023-01-30T20:16:43.195Z,97.74
2023-01-30T20:19:14.490Z,98.11
2023-01-30T20:21:42.623Z,97.88
2023-01-30T20:24:12.154Z,98.58
2023-01-30T20:26:40.341Z,98.49
2023-01-30T20:29:09.434Z,98.20
2023-01-30T20:31:38.320Z,98.83
2023-01-30T20:34:07.154Z,98.45
2023-01-30T20:36:36.162Z,97.81
2023-01-30T20:39:06.452Z,98.27
2023-01-30T20:41:35.665Z,98.15
2023-01-30T20:44:03.611Z,97.79
2023-01-30T20:46:35.462Z,97.96
2023-01-30T20:49:03.266Z,97.96
2023-01-30T20:51:32.207Z,97.27
2023-01-30T20:54:03.909Z,97.84
2023-01-30T20:56:33.709Z,97.32
2023-01-30T20:59:02.680Z,96.89
2023-01-30T21:01:30.349Z,97.24
2023-01-30T21:03:58.083Z,96.40
2023-01-30T21:06:41.588Z,96.77
2023-01-30T21:09:15.942Z,96.16
2023-01-30T21:11:43.768Z,96.69
2023-01-30T21:14:11.466Z,96.60
2023-01-30T21:16:39.573Z,96.40
2023-01-30T21:19:08.913Z,96.59
2023-01-30T21:21:39.058Z,95.80
2023-01-30T21:24:08.779Z,95.76
2023-01-30T21:26:40.019Z,96.06
2023-01-30T21:29:09.139Z,95.67
2023-01-30T21:31:37.675Z,95.24
2023-01-30T21:34:05.707Z,95.50
2023-01-30T21:36:33.208Z,94.85
2023-01-30T21:39:18.377Z,95.40
2023-01-30T21:42:04.880Z,96.02
2023-01-30T21:44:37.013Z,95.36
2023-01-30T21:47:05.228Z,94.93
2023-01-30T21:49:33.188Z,94.66
2023-01-30T21:52:00.832Z,94.80
2023-01-30T21:54:28.548Z,95.06
2023-01-30T21:56:57.372Z,95.01
2023-01-30T21:59:24.838Z,95.13
2023-01-30T22:01:52.290Z,95.39
2023-01-30T22:04:19.818Z,94.93
2023-01-30T22:06:47.338Z,94.50
2023-01-30T22:09:16.326Z,94.21
2023-01-30T22:11:44.424Z,94.16
2023-01-30T22:14:14.847Z,94.58
2023-01-30T22:16:42.534Z,95.13
2023-01-30T22:19:11.435Z,94.30
2023-01-30T22:21:40.577Z,94.38
2023-01-30T22:24:11.519Z,94.99
2023-01-30T22:26:39.605Z,95.19
2023-01-30T22:29:07.652Z,94.88
2023-01-30T22:31:40.332Z,94.91
2023-01-30T22:34:08.844Z,94.76
2023-01-30T22:36:37.278Z,95.74
2023-01-30T22:39:05.922Z,94.73
2023-01-30T22:41:36.248Z,95.12
2023-01-30T22:44:08.760Z,95.10
2023-01-30T22:46:40.372Z,95.92
2023-01-30T22:49:09.712Z,95.10
2023-01-30T22:51:41.200Z,95.33
2023-01-30T22:54:11.156Z,95.49
2023-01-30T22:56:40.859Z,95.26
2023-01-30T22:59:09.805Z,95.31
2023-01-30T23:01:40.593Z,95.26
2023-01-30T23:04:11.727Z,95.40
2023-01-30T23:06:39.671Z,95.01
2023-01-30T23:09:09.014Z,96.05
2023-01-30T23:11:39.153Z,95.29
2023-01-30T23:14:09.476Z,95.17
2023-01-30T23:16:40.494Z,95.45
2023-01-30T23:19:08.744Z,94.69
2023-01-30T23:21:39.344Z,95.41
2023-01-30T23:24:09.246Z,94.91
2023-01-30T23:26:38.763Z,95.79
2023-01-30T23:29:08.077Z,95.88
2023-01-30T23:31:36.823Z,96.51
2023-01-30T23:34:07.596Z,95.79
2023-01-30T23:36:35.665Z,96.03
2023-01-30T23:39:03.125Z,96.86
2023-01-30T23:41:32.641Z,96.65
2023-01-30T23:44:01.602Z,96.02
2023-01-30T23:46:31.904Z,95.97
2023-01-30T23:49:01.609Z,96.48
2023-01-30T23:51:33.073Z,95.99
2023-01-30T23:54:00.974Z,96.10
2023-01-30T23:56:30.986Z,96.57
2023-01-30T23:58:58.759Z,96.33
